createdAt,value
2023-03-27T00:00:59.630Z,4.22
2023-03-27T00:02:01.655Z,4.75
2023-03-27T00:03:03.325Z,4.90
2023-03-27T00:04:05.753Z,3.10
2023-03-27T00:05:08.400Z,3.40
2023-03-27T00:06:16.766Z,3.40
2023-03-27T00:07:20.017Z,3.60
2023-03-27T00:08:21.532Z,3.25
2023-03-27T00:09:23.029Z,3.20
2023-03-27T00:10:24.690Z,3.83
2023-03-27T00:11:26.586Z,3.70
2023-03-27T00:12:28.123Z,3.80
2023-03-27T00:13:30.764Z,4.15
2023-03-27T00:14:32.340Z,3.35
2023-03-27T00:17:38.914Z,3.47
2023-03-27T00:18:40.667Z,3.13
2023-03-27T00:19:42.340Z,4.85
2023-03-27T00:20:44.766Z,4.85
2023-03-27T00:21:46.198Z,4.05
2023-03-27T00:22:48.226Z,3.97
2023-03-27T00:23:50.128Z,4.75
2023-03-27T00:24:51.910Z,3.85
2023-03-27T00:25:54.519Z,3.95
2023-03-27T00:26:56.271Z,3.72
2023-03-27T00:27:58.552Z,4.32
2023-03-27T00:29:00.001Z,3.63
2023-03-27T00:30:01.603Z,4.47
2023-03-27T00:31:03.787Z,3.22
2023-03-27T00:32:05.764Z,3.35
2023-03-27T00:33:09.046Z,4.50
2023-03-27T00:34:10.569Z,3.90
2023-03-27T00:35:13.497Z,4.35
2023-03-27T00:37:16.944Z,3.75
2023-03-27T00:38:18.555Z,4.63
2023-03-27T00:39:20.612Z,3.10
2023-03-27T00:40:22.694Z,3.63
2023-03-27T00:41:24.372Z,4.57
2023-03-27T00:42:26.361Z,4.72
2023-03-27T00:43:35.615Z,4.28
2023-03-27T00:44:39.646Z,3.85
2023-03-27T00:45:41.437Z,3.95
2023-03-27T00:46:44.972Z,3.72
2023-03-27T00:47:49.318Z,3.13
2023-03-27T00:48:52.840Z,3.40
2023-03-27T00:49:55.241Z,3.00
2023-03-27T00:50:57.790Z,3.25
2023-03-27T00:52:03.271Z,3.85
2023-03-27T00:53:09.783Z,3.15
2023-03-27T00:54:17.166Z,3.60
2023-03-27T00:55:20.177Z,3.20
2023-03-27T00:57:25.191Z,3.13
2023-03-27T00:58:39.773Z,3.33
2023-03-27T00:59:43.953Z,2.80
2023-03-27T01:00:46.690Z,3.03
2023-03-27T01:01:49.019Z,3.38
2023-03-27T01:02:54.664Z,3.10
2023-03-27T01:04:00.633Z,3.67
2023-03-27T01:05:02.379Z,2.80
2023-03-27T01:06:04.652Z,2.60
2023-03-27T01:07:08.598Z,2.88
2023-03-27T01:08:11.720Z,2.42
2023-03-27T01:09:20.644Z,2.97
2023-03-27T01:10:30.460Z,2.75
2023-03-27T01:11:56.433Z,2.70
2023-03-27T01:13:24.132Z,3.00
2023-03-27T01:15:41.372Z,2.97
2023-03-27T01:17:16.743Z,2.50
2023-03-27T01:18:20.861Z,2.15
2023-03-27T01:19:45.870Z,2.53
2023-03-27T01:20:59.757Z,2.33
2023-03-27T01:22:10.394Z,2.45
2023-03-27T01:23:58.882Z,1.77
2023-03-27T01:24:57.587Z,1.70
2023-03-27T01:26:35.515Z,1.73
2023-03-27T01:27:44.245Z,2.15
2023-03-27T01:29:01.727Z,2.15
2023-03-27T01:30:23.752Z,1.63
2023-03-27T01:31:44.061Z,1.05
2023-03-27T01:33:06.270Z,1.73
2023-03-27T01:35:02.261Z,1.13
2023-03-27T01:36:10.993Z,1.67
2023-03-27T01:37:47.737Z,1.27
2023-03-27T01:39:07.886Z,1.42
2023-03-27T01:40:47.416Z,1.60
2023-03-27T01:42:21.596Z,1.35
2023-03-27T01:43:35.179Z,1.52
2023-03-27T01:44:48.277Z,1.38
2023-03-27T01:46:08.546Z,2.05
2023-03-27T01:47:21.562Z,1.70
2023-03-27T01:48:37.016Z,2.00
2023-03-27T01:49:48.493Z,2.47
2023-03-27T01:51:03.904Z,2.15
2023-03-27T01:52:12.372Z,1.38
2023-03-27T01:53:42.235Z,2.30
2023-03-27T01:54:55.364Z,1.63
2023-03-27T01:56:05.448Z,1.83
2023-03-27T01:57:22.200Z,2.17
2023-03-27T01:58:29.338Z,1.65
2023-03-27T01:59:34.743Z,2.10
2023-03-27T02:00:50.991Z,1.88
2023-03-27T02:02:10.424Z,1.70
2023-03-27T02:03:21.013Z,1.75
2023-03-27T02:04:30.057Z,1.67
2023-03-27T02:05:44.921Z,1.83
2023-03-27T02:06:55.145Z,1.65
2023-03-27T02:08:10.399Z,1.17
2023-03-27T02:10:31.243Z,0.88
2023-03-27T02:11:49.259Z,1.33
2023-03-27T02:12:56.872Z,2.13
2023-03-27T02:14:05.658Z,1.15
2023-03-27T02:15:23.647Z,1.35
2023-03-27T02:16:33.688Z,0.88
2023-03-27T02:17:47.655Z,1.75
2023-03-27T02:18:59.033Z,0.40
2023-03-27T02:20:16.237Z,1.13
2023-03-27T02:21:17.807Z,1.17
2023-03-27T02:22:19.257Z,1.45
2023-03-27T02:23:39.682Z,0.77
2023-03-27T02:24:43.422Z,1.55
2023-03-27T02:25:46.033Z,0.70
2023-03-27T02:26:53.031Z,0.82
2023-03-27T02:28:20.858Z,0.98
2023-03-27T02:29:25.212Z,0.85
2023-03-27T02:30:46.414Z,0.68
2023-03-27T02:32:28.454Z,1.48
2023-03-27T02:33:57.199Z,1.23
2023-03-27T02:35:17.574Z,0.88
2023-03-27T02:36:38.047Z,2.05
2023-03-27T02:37:48.485Z,0.77
2023-03-27T02:39:28.818Z,0.35
2023-03-27T02:40:57.131Z,0.88
2023-03-27T02:42:09.352Z,1.10
2023-03-27T02:43:21.145Z,0.57
2023-03-27T02:44:36.688Z,0.57
2023-03-27T02:45:48.305Z,1.52
2023-03-27T02:46:55.402Z,0.82
2023-03-27T02:48:15.398Z,0.75
2023-03-27T02:49:22.281Z,1.40
2023-03-27T02:50:34.185Z,0.95
2023-03-27T02:51:48.019Z,1.10
2023-03-27T02:52:58.438Z,1.80
2023-03-27T02:54:06.907Z,0.73
2023-03-27T02:55:14.229Z,1.40
2023-03-27T02:56:19.326Z,0.77
2023-03-27T02:57:26.568Z,1.38
2023-03-27T02:58:37.078Z,1.98
2023-03-27T02:59:45.410Z,1.38
2023-03-27T03:00:50.656Z,1.10
2023-03-27T03:01:53.057Z,1.42
2023-03-27T03:03:05.666Z,1.98
2023-03-27T03:04:28.762Z,1.92
2023-03-27T03:05:30.245Z,1.88
2023-03-27T03:06:31.750Z,2.05
2023-03-27T03:07:34.676Z,3.22
2023-03-27T03:08:39.288Z,1.58
2023-03-27T03:09:41.703Z,2.60
2023-03-27T03:10:46.193Z,2.17
2023-03-27T03:11:51.433Z,1.38
2023-03-27T03:12:53.321Z,2.20
2023-03-27T03:13:55.989Z,1.98
2023-03-27T03:14:57.600Z,2.92
2023-03-27T03:15:59.133Z,2.45
2023-03-27T03:17:00.953Z,1.65
2023-03-27T03:18:02.847Z,2.80
2023-03-27T03:19:04.336Z,2.03
2023-03-27T03:20:07.774Z,2.83
2023-03-27T03:21:09.584Z,2.35
2023-03-27T03:22:11.360Z,2.20
2023-03-27T03:23:13.152Z,2.83
2023-03-27T03:24:14.752Z,2.90
2023-03-27T03:25:17.868Z,1.83
2023-03-27T03:26:19.318Z,2.33
2023-03-27T03:27:21.166Z,1.92
2023-03-27T03:28:26.339Z,3.05
2023-03-27T03:29:30.169Z,2.58
2023-03-27T03:30:31.811Z,2.65
2023-03-27T03:31:44.491Z,2.53
2023-03-27T03:32:47.438Z,2.55
2023-03-27T03:33:49.476Z,3.03
2023-03-27T03:34:50.925Z,2.67
2023-03-27T03:35:52.470Z,2.65
2023-03-27T03:36:55.215Z,2.28
2023-03-27T03:37:58.048Z,3.05
2023-03-27T03:38:59.473Z,2.60
2023-03-27T03:40:00.933Z,3.42
2023-03-27T03:41:02.781Z,2.78
2023-03-27T03:42:04.765Z,2.80
2023-03-27T03:43:06.364Z,3.33
2023-03-27T03:44:08.547Z,4.18
2023-03-27T03:45:10.557Z,3.22
2023-03-27T03:46:12.055Z,2.60
2023-03-27T03:47:13.801Z,3.33
2023-03-27T03:48:15.810Z,4.03
2023-03-27T03:49:17.342Z,3.97
2023-03-27T03:50:18.792Z,4.15
2023-03-27T03:51:20.465Z,4.97
2023-03-27T03:52:21.943Z,5.43
2023-03-27T03:53:23.889Z,4.18
2023-03-27T03:54:25.362Z,4.97
2023-03-27T03:55:26.801Z,4.32
2023-03-27T03:56:30.578Z,7.15
2023-03-27T03:57:32.492Z,4.72
2023-03-27T03:58:33.937Z,7.13
2023-03-27T03:59:36.475Z,7.22
2023-03-27T04:00:39.570Z,5.97
2023-03-27T04:01:41.145Z,6.00
2023-03-27T04:02:43.619Z,5.13
2023-03-27T04:03:45.511Z,5.55
2023-03-27T04:04:47.052Z,5.20
2023-03-27T04:05:48.608Z,5.32
2023-03-27T04:06:50.073Z,6.82
2023-03-27T04:07:52.393Z,6.32
2023-03-27T04:08:53.883Z,7.60
2023-03-27T04:09:55.331Z,5.45
2023-03-27T04:10:57.090Z,6.43
2023-03-27T04:11:59.306Z,11.50
2023-03-27T04:13:01.286Z,6.80
2023-03-27T04:14:02.780Z,5.93
2023-03-27T04:15:04.649Z,8.63
2023-03-27T04:16:06.559Z,8.80
2023-03-27T04:17:08.220Z,7.05
2023-03-27T04:18:10.098Z,7.20
2023-03-27T04:19:11.651Z,8.80
2023-03-27T04:20:13.291Z,8.98
2023-03-27T04:21:15.219Z,8.98
2023-03-27T04:22:22.679Z,9.30
2023-03-27T04:23:31.415Z,6.13
2023-03-27T04:24:32.888Z,8.35
2023-03-27T04:25:37.245Z,7.45
2023-03-27T04:26:38.713Z,6.63
2023-03-27T04:27:43.533Z,12.70
2023-03-27T04:28:45.028Z,8.70
2023-03-27T04:29:47.336Z,8.27
2023-03-27T04:30:50.574Z,8.00
2023-03-27T04:31:52.270Z,9.10
2023-03-27T04:32:54.457Z,8.07
2023-03-27T04:33:55.960Z,8.13
2023-03-27T04:34:57.396Z,8.73
2023-03-27T04:36:07.060Z,8.63
2023-03-27T04:37:09.050Z,8.10
2023-03-27T04:38:10.691Z,9.43
2023-03-27T04:39:12.298Z,9.30
2023-03-27T04:40:18.113Z,8.40
2023-03-27T04:41:21.199Z,8.10
2023-03-27T04:43:27.219Z,8.85
2023-03-27T04:44:28.641Z,7.50
2023-03-27T04:45:30.072Z,8.75
2023-03-27T04:46:31.570Z,9.15
2023-03-27T04:47:38.163Z,9.85
2023-03-27T04:48:39.810Z,9.73
2023-03-27T04:49:43.685Z,7.40
2023-03-27T04:50:49.276Z,7.25
2023-03-27T04:51:51.191Z,8.80
2023-03-27T04:52:58.913Z,10.25
2023-03-27T04:54:04.775Z,7.35
2023-03-27T04:55:08.111Z,8.25
2023-03-27T04:56:10.718Z,9.05
2023-03-27T04:57:12.934Z,8.43
2023-03-27T04:58:15.617Z,7.80
2023-03-27T04:59:17.115Z,10.30
2023-03-27T05:00:19.718Z,9.65
2023-03-27T05:01:21.304Z,9.15
2023-03-27T05:02:23.444Z,8.05
2023-03-27T05:03:26.046Z,10.38
2023-03-27T05:04:28.937Z,7.55
2023-03-27T05:05:30.478Z,8.10
2023-03-27T05:06:32.972Z,11.10
2023-03-27T05:07:34.816Z,8.73
2023-03-27T05:08:36.431Z,9.05
2023-03-27T05:09:38.180Z,9.18
2023-03-27T05:10:39.618Z,8.75
2023-03-27T05:11:41.173Z,10.30
2023-03-27T05:12:47.192Z,8.98
2023-03-27T05:13:48.696Z,8.45
2023-03-27T05:14:50.232Z,9.13
2023-03-27T05:15:51.735Z,8.23
2023-03-27T05:16:53.243Z,11.40
2023-03-27T05:17:55.170Z,9.13
2023-03-27T05:18:56.674Z,10.35
2023-03-27T05:19:58.137Z,6.75
2023-03-27T05:21:00.215Z,8.77
2023-03-27T05:22:01.722Z,6.72
2023-03-27T05:23:03.580Z,7.88
2023-03-27T05:24:05.450Z,8.18
2023-03-27T05:25:08.525Z,11.90
2023-03-27T05:27:11.397Z,8.57
2023-03-27T05:28:12.909Z,7.82
2023-03-27T05:29:15.420Z,8.15
2023-03-27T05:30:20.376Z,8.27
2023-03-27T05:31:22.722Z,7.80
2023-03-27T05:32:24.206Z,10.70
2023-03-27T05:33:25.824Z,7.05
2023-03-27T05:34:28.638Z,10.18
2023-03-27T05:35:30.203Z,9.85
2023-03-27T05:36:31.928Z,8.05
2023-03-27T05:37:33.779Z,10.25
2023-03-27T05:38:35.203Z,7.28
2023-03-27T05:39:36.939Z,8.55
2023-03-27T05:40:39.326Z,7.22
2023-03-27T05:41:41.247Z,7.80
2023-03-27T05:42:46.519Z,6.35
2023-03-27T05:43:50.727Z,7.13
2023-03-27T05:44:52.928Z,6.82
2023-03-27T05:45:54.436Z,7.07
2023-03-27T05:46:56.024Z,8.93
2023-03-27T05:47:59.720Z,9.63
2023-03-27T05:49:01.448Z,7.72
2023-03-27T05:50:03.151Z,6.80
2023-03-27T05:51:09.396Z,8.30
2023-03-27T05:52:10.916Z,9.60
2023-03-27T05:53:12.558Z,7.13
2023-03-27T05:54:14.122Z,5.68
2023-03-27T05:55:15.776Z,8.32
2023-03-27T05:56:17.329Z,11.23
2023-03-27T05:57:19.336Z,8.02
2023-03-27T05:58:21.090Z,9.30
2023-03-27T05:59:22.616Z,9.98
2023-03-27T06:00:31.559Z,11.35
2023-03-27T06:01:35.806Z,8.23
2023-03-27T06:02:39.322Z,9.65
2023-03-27T06:03:40.996Z,8.35
2023-03-27T06:04:42.678Z,8.05
2023-03-27T06:05:44.228Z,12.70
2023-03-27T06:06:45.768Z,7.15
2023-03-27T06:07:47.751Z,8.95
2023-03-27T06:08:49.244Z,6.97
2023-03-27T06:09:50.690Z,8.30
2023-03-27T06:10:52.571Z,10.70
2023-03-27T06:11:54.000Z,7.57
2023-03-27T06:13:12.133Z,9.30
2023-03-27T06:14:13.569Z,8.05
2023-03-27T06:15:15.676Z,9.48
2023-03-27T06:16:20.649Z,14.40
2023-03-27T06:17:22.676Z,9.75
2023-03-27T06:18:24.153Z,10.32
2023-03-27T06:19:25.574Z,10.82
2023-03-27T06:20:27.675Z,8.70
2023-03-27T06:21:29.136Z,8.23
2023-03-27T06:22:30.679Z,8.50
2023-03-27T06:23:32.463Z,9.65
2023-03-27T06:24:33.941Z,9.00
2023-03-27T06:25:37.620Z,8.48
2023-03-27T06:26:39.349Z,7.45
2023-03-27T06:27:45.789Z,11.15
2023-03-27T06:28:47.306Z,7.93
2023-03-27T06:29:48.817Z,10.07
2023-03-27T06:30:50.331Z,12.23
2023-03-27T06:31:52.774Z,8.05
2023-03-27T06:32:59.145Z,11.13
2023-03-27T06:34:00.653Z,8.02
2023-03-27T06:35:02.859Z,9.18
2023-03-27T06:36:05.383Z,7.97
2023-03-27T06:37:06.980Z,9.10
2023-03-27T06:38:09.110Z,7.93
2023-03-27T06:39:11.114Z,7.78
2023-03-27T06:40:23.375Z,7.28
2023-03-27T06:41:24.838Z,9.15
2023-03-27T06:42:26.258Z,8.20
2023-03-27T06:43:27.765Z,8.50
2023-03-27T06:44:29.186Z,7.85
2023-03-27T06:45:52.600Z,9.27
2023-03-27T06:46:54.100Z,10.20
2023-03-27T06:48:15.087Z,10.30
2023-03-27T06:49:21.240Z,8.38
2023-03-27T06:50:25.205Z,11.75
2023-03-27T06:51:26.993Z,8.05
2023-03-27T06:52:28.410Z,8.52
2023-03-27T06:53:33.088Z,9.13
2023-03-27T06:54:37.013Z,10.52
2023-03-27T06:55:38.415Z,9.30
2023-03-27T06:56:40.070Z,8.43
2023-03-27T06:57:46.543Z,8.35
2023-03-27T06:58:48.083Z,9.98
2023-03-27T06:59:49.821Z,9.98
2023-03-27T07:00:51.490Z,9.80
2023-03-27T07:01:53.031Z,9.48
2023-03-27T07:02:56.659Z,9.88
2023-03-27T07:03:58.199Z,9.55
2023-03-27T07:05:04.650Z,8.48
2023-03-27T07:06:07.464Z,11.10
2023-03-27T07:07:09.001Z,8.68
2023-03-27T07:09:18.284Z,9.10
2023-03-27T07:10:20.196Z,9.95
2023-03-27T07:11:21.646Z,9.25
2023-03-27T07:12:23.182Z,7.22
2023-03-27T07:13:25.008Z,9.77
2023-03-27T07:14:26.473Z,9.93
2023-03-27T07:15:27.980Z,9.10
2023-03-27T07:16:29.544Z,8.65
2023-03-27T07:17:42.141Z,8.68
2023-03-27T07:18:49.388Z,7.15
2023-03-27T07:19:51.491Z,7.95
2023-03-27T07:20:52.989Z,9.00
2023-03-27T07:21:54.494Z,7.60
2023-03-27T07:22:57.458Z,8.95
2023-03-27T07:23:58.995Z,9.30
2023-03-27T07:25:00.533Z,7.55
2023-03-27T07:26:02.051Z,6.90
2023-03-27T07:27:03.822Z,8.20
2023-03-27T07:28:08.059Z,9.43
2023-03-27T07:29:10.918Z,6.00
2023-03-27T07:30:13.321Z,6.13
2023-03-27T07:31:32.630Z,8.15
2023-03-27T07:32:39.153Z,4.20
2023-03-27T07:33:41.384Z,5.75
2023-03-27T07:34:42.910Z,5.30
2023-03-27T07:35:46.811Z,6.70
2023-03-27T07:36:49.146Z,7.85
2023-03-27T07:37:53.067Z,7.03
2023-03-27T07:38:54.945Z,7.65
2023-03-27T07:39:56.556Z,5.45
2023-03-27T07:40:58.130Z,5.60
2023-03-27T07:41:59.642Z,8.18
2023-03-27T07:43:01.367Z,4.45
2023-03-27T07:44:02.829Z,5.38
2023-03-27T07:45:04.839Z,6.55
2023-03-27T07:46:06.578Z,8.50
2023-03-27T07:47:08.091Z,8.15
2023-03-27T07:48:15.190Z,5.07
2023-03-27T07:49:16.654Z,5.28
2023-03-27T07:50:20.305Z,7.68
2023-03-27T07:51:22.704Z,5.82
2023-03-27T07:52:24.214Z,7.38
2023-03-27T07:53:33.050Z,8.73
2023-03-27T07:54:36.136Z,6.22
2023-03-27T07:55:38.003Z,4.22
2023-03-27T07:56:40.820Z,6.13
2023-03-27T07:57:59.956Z,4.25
2023-03-27T07:59:04.486Z,3.72
2023-03-27T08:00:12.513Z,7.10
2023-03-27T08:01:14.475Z,7.93
2023-03-27T08:02:16.023Z,5.22
2023-03-27T08:03:19.048Z,5.65
2023-03-27T08:04:20.727Z,5.50
2023-03-27T08:05:22.932Z,7.63
2023-03-27T08:06:24.459Z,6.03
2023-03-27T08:07:25.925Z,5.57
2023-03-27T08:08:28.305Z,3.70
2023-03-27T08:09:29.826Z,5.32
2023-03-27T08:10:31.373Z,5.70
2023-03-27T08:11:32.844Z,4.43
2023-03-27T08:12:35.978Z,3.42
2023-03-27T08:13:38.049Z,5.28
2023-03-27T08:14:39.539Z,4.18
2023-03-27T08:15:41.296Z,4.57
2023-03-27T08:16:42.844Z,3.85
2023-03-27T08:17:44.525Z,6.18
2023-03-27T08:18:46.891Z,5.28
2023-03-27T08:19:48.640Z,4.95
2023-03-27T08:20:55.414Z,4.65
2023-03-27T08:21:57.045Z,5.32
2023-03-27T08:22:58.571Z,5.35
2023-03-27T08:24:02.662Z,5.35
2023-03-27T08:25:06.589Z,4.53
2023-03-27T08:26:09.083Z,4.55
2023-03-27T08:27:10.693Z,3.35
2023-03-27T08:28:12.445Z,5.90
2023-03-27T08:29:13.924Z,8.70
2023-03-27T08:30:17.017Z,3.45
2023-03-27T08:31:19.551Z,4.45
2023-03-27T08:32:21.211Z,4.07
2023-03-27T08:33:23.235Z,3.60
2023-03-27T08:34:24.786Z,3.88
2023-03-27T08:35:26.541Z,4.53
2023-03-27T08:36:28.072Z,4.03
2023-03-27T08:37:29.516Z,4.25
2023-03-27T08:38:33.821Z,6.22
2023-03-27T08:39:35.615Z,2.92
2023-03-27T08:40:37.978Z,5.25
2023-03-27T08:41:51.953Z,5.43
2023-03-27T08:42:58.239Z,3.83
2023-03-27T08:44:03.911Z,3.97
2023-03-27T08:45:17.759Z,6.20
2023-03-27T08:46:28.844Z,4.45
2023-03-27T08:47:38.880Z,4.40
2023-03-27T08:48:47.950Z,4.15
2023-03-27T08:49:55.639Z,4.05
2023-03-27T08:51:03.726Z,5.60
2023-03-27T08:52:15.559Z,4.57
2023-03-27T08:53:48.107Z,4.60
2023-03-27T08:55:10.803Z,4.57
2023-03-27T08:56:17.432Z,4.57
2023-03-27T08:57:24.053Z,3.28
2023-03-27T08:58:26.914Z,4.05
2023-03-27T09:00:39.519Z,3.17
2023-03-27T09:02:02.222Z,5.47
2023-03-27T09:03:12.080Z,3.80
2023-03-27T09:04:48.678Z,3.28
2023-03-27T09:06:08.483Z,7.93
2023-03-27T09:07:16.144Z,4.10
2023-03-27T09:08:39.564Z,3.40
2023-03-27T09:09:55.451Z,4.10
2023-03-27T09:11:03.153Z,4.45
2023-03-27T09:12:29.500Z,3.85
2023-03-27T09:13:40.081Z,3.40
2023-03-27T09:15:00.107Z,3.28
2023-03-27T09:16:11.084Z,4.47
2023-03-27T09:17:51.765Z,4.95
2023-03-27T09:19:15.379Z,4.28
2023-03-27T09:20:23.264Z,4.22
2023-03-27T09:21:48.698Z,4.82
2023-03-27T09:22:55.259Z,3.58
2023-03-27T09:24:01.365Z,5.18
2023-03-27T09:25:14.816Z,5.10
2023-03-27T09:26:26.007Z,3.78
2023-03-27T09:27:32.623Z,4.38
2023-03-27T09:28:56.415Z,6.47
2023-03-27T09:30:15.055Z,4.28
2023-03-27T09:31:24.819Z,2.53
2023-03-27T09:32:26.671Z,4.97
2023-03-27T09:33:36.303Z,4.40
2023-03-27T09:34:37.796Z,4.03
2023-03-27T09:35:39.770Z,5.03
2023-03-27T09:36:42.627Z,2.92
2023-03-27T09:37:44.985Z,2.70
2023-03-27T09:38:51.304Z,4.43
2023-03-27T09:39:54.624Z,4.68
2023-03-27T09:41:01.500Z,2.80
2023-03-27T09:42:09.184Z,3.60
2023-03-27T09:43:24.424Z,4.53
2023-03-27T09:44:30.168Z,4.30
2023-03-27T09:45:32.141Z,2.33
2023-03-27T09:46:38.188Z,4.68
2023-03-27T09:47:57.019Z,3.30
2023-03-27T09:49:09.905Z,3.38
2023-03-27T09:50:33.770Z,4.20
2023-03-27T09:51:38.116Z,2.80
2023-03-27T09:52:40.805Z,5.03
2023-03-27T09:53:58.049Z,6.07
2023-03-27T09:54:59.935Z,3.17
2023-03-27T09:56:05.494Z,5.40
2023-03-27T09:57:11.327Z,4.65
2023-03-27T09:58:30.004Z,4.03
2023-03-27T10:00:08.097Z,3.65
2023-03-27T10:01:14.022Z,4.55
2023-03-27T10:02:21.046Z,4.72
2023-03-27T10:03:23.302Z,3.92
2023-03-27T10:04:29.202Z,3.67
2023-03-27T10:05:31.798Z,5.22
2023-03-27T10:06:51.479Z,3.80
2023-03-27T10:07:52.937Z,5.63
2023-03-27T10:08:56.496Z,3.55
2023-03-27T10:10:09.567Z,5.85
2023-03-27T10:11:17.698Z,5.28
2023-03-27T10:12:20.988Z,4.07
2023-03-27T10:13:29.147Z,3.55
2023-03-27T10:14:34.860Z,5.50
2023-03-27T10:15:39.080Z,3.20
2023-03-27T10:16:41.768Z,4.95
2023-03-27T10:17:49.109Z,4.57
2023-03-27T10:18:55.733Z,5.65
2023-03-27T10:20:05.629Z,2.67
2023-03-27T10:21:11.426Z,4.50
2023-03-27T10:22:22.828Z,5.30
2023-03-27T10:23:29.551Z,3.35
2023-03-27T10:24:34.382Z,4.88
2023-03-27T10:25:39.368Z,3.75
2023-03-27T10:26:40.989Z,5.45
2023-03-27T10:27:43.759Z,4.22
2023-03-27T10:28:51.599Z,3.58
2023-03-27T10:29:53.445Z,2.45
2023-03-27T10:31:24.012Z,6.10
2023-03-27T10:32:45.333Z,4.13
2023-03-27T10:33:47.400Z,2.92
2023-03-27T10:35:00.291Z,3.30
2023-03-27T10:36:03.089Z,4.13
2023-03-27T10:37:20.748Z,2.38
2023-03-27T10:38:22.892Z,3.53
2023-03-27T10:39:29.197Z,3.47
2023-03-27T10:40:34.808Z,5.47
2023-03-27T10:41:36.869Z,3.70
2023-03-27T10:42:38.390Z,5.07
2023-03-27T10:43:46.069Z,4.80
2023-03-27T10:44:49.062Z,4.95
2023-03-27T10:46:54.993Z,3.92
2023-03-27T10:48:00.868Z,3.53
2023-03-27T10:49:25.513Z,2.75
2023-03-27T10:50:44.123Z,3.60
2023-03-27T10:52:00.679Z,2.70
2023-03-27T10:53:24.810Z,3.60
2023-03-27T10:54:37.061Z,3.33
2023-03-27T10:56:17.080Z,4.97
2023-03-27T10:57:29.078Z,3.47
2023-03-27T10:58:35.396Z,4.45
2023-03-27T10:59:47.720Z,5.55
2023-03-27T11:00:59.232Z,3.47
2023-03-27T11:02:20.343Z,5.03
2023-03-27T11:03:36.522Z,2.78
2023-03-27T11:04:55.490Z,4.65
2023-03-27T11:05:59.354Z,4.88
2023-03-27T11:07:03.329Z,3.55
2023-03-27T11:08:13.275Z,3.28
2023-03-27T11:09:20.360Z,3.50
2023-03-27T11:10:39.957Z,6.65
2023-03-27T11:12:10.343Z,3.90
2023-03-27T11:13:23.556Z,5.32
2023-03-27T11:14:38.669Z,2.20
2023-03-27T11:15:46.622Z,4.35
2023-03-27T11:17:04.244Z,4.18
2023-03-27T11:18:18.402Z,3.03
2023-03-27T11:19:38.010Z,3.88
2023-03-27T11:20:47.626Z,3.72
2023-03-27T11:21:58.502Z,6.47
2023-03-27T11:23:07.465Z,2.70
2023-03-27T11:24:40.828Z,5.85
2023-03-27T11:25:48.159Z,5.68
2023-03-27T11:26:59.869Z,4.95
2023-03-27T11:28:33.924Z,6.82
2023-03-27T11:29:48.465Z,4.45
2023-03-27T11:30:57.011Z,5.07
2023-03-27T11:32:11.351Z,5.82
2023-03-27T11:33:27.663Z,4.57
2023-03-27T11:34:35.668Z,5.13
2023-03-27T11:35:42.896Z,3.70
2023-03-27T11:36:52.891Z,4.15
2023-03-27T11:38:08.443Z,5.30
2023-03-27T11:39:33.158Z,5.65
2023-03-27T11:40:47.995Z,4.93
2023-03-27T11:42:02.391Z,4.43
2023-03-27T11:43:04.250Z,3.60
2023-03-27T11:44:06.646Z,3.13
2023-03-27T11:45:13.345Z,4.18
2023-03-27T11:46:45.758Z,3.92
2023-03-27T11:48:23.622Z,4.43
2023-03-27T11:49:44.242Z,3.47
2023-03-27T11:51:00.753Z,2.88
2023-03-27T11:52:29.600Z,3.17
2023-03-27T11:54:13.357Z,6.65
2023-03-27T11:55:23.569Z,3.90
2023-03-27T11:56:37.949Z,5.75
2023-03-27T11:58:00.903Z,3.67
2023-03-27T11:59:23.030Z,6.47
2023-03-27T12:00:36.559Z,2.67
2023-03-27T12:01:47.221Z,3.90
2023-03-27T12:03:36.501Z,3.58
2023-03-27T12:04:59.488Z,3.90
2023-03-27T12:06:26.691Z,2.80
2023-03-27T12:07:49.664Z,3.58
2023-03-27T12:09:10.949Z,3.65
2023-03-27T12:10:29.076Z,3.83
2023-03-27T12:11:31.234Z,4.25
2023-03-27T12:13:03.682Z,3.17
2023-03-27T12:14:40.775Z,3.17
2023-03-27T12:16:08.531Z,2.67
2023-03-27T12:17:28.194Z,3.58
2023-03-27T12:18:41.375Z,2.42
2023-03-27T12:20:06.792Z,2.45
2023-03-27T12:22:31.371Z,3.08
2023-03-27T12:24:01.399Z,5.78
2023-03-27T12:25:47.234Z,3.90
2023-03-27T12:27:19.694Z,3.70
2023-03-27T12:28:33.108Z,2.78
2023-03-27T12:29:50.852Z,2.45
2023-03-27T12:30:59.635Z,4.28
2023-03-27T12:32:07.800Z,3.08
2023-03-27T12:33:38.596Z,4.57
2023-03-27T12:34:42.768Z,4.28
2023-03-27T12:35:48.573Z,4.90
2023-03-27T12:36:52.390Z,3.35
2023-03-27T12:37:57.025Z,4.63
2023-03-27T12:38:59.252Z,5.30
2023-03-27T12:40:01.366Z,4.32
2023-03-27T12:41:28.625Z,3.65
2023-03-27T12:42:48.125Z,4.18
2023-03-27T12:43:56.494Z,3.38
2023-03-27T12:45:27.404Z,6.28
2023-03-27T12:46:39.738Z,2.85
2023-03-27T12:47:45.969Z,4.05
2023-03-27T12:48:58.209Z,3.33
2023-03-27T12:50:00.811Z,4.75
2023-03-27T12:51:13.747Z,3.20
2023-03-27T12:52:15.609Z,2.95
2023-03-27T12:53:29.316Z,2.30
2023-03-27T12:54:33.433Z,3.45
2023-03-27T12:55:36.335Z,1.98
2023-03-27T12:56:38.679Z,3.30
2023-03-27T12:57:45.284Z,4.63
2023-03-27T12:58:49.623Z,3.33
2023-03-27T12:59:52.612Z,2.95
2023-03-27T13:02:04.823Z,2.38
2023-03-27T13:03:54.766Z,2.47
2023-03-27T13:05:42.369Z,2.15
2023-03-27T13:06:52.958Z,4.45
2023-03-27T13:08:00.648Z,3.08
2023-03-27T13:09:33.966Z,2.47
2023-03-27T13:10:44.737Z,1.83
2023-03-27T13:12:36.622Z,3.17
2023-03-27T13:13:44.744Z,2.85
2023-03-27T13:15:00.656Z,3.78
2023-03-27T13:16:33.796Z,3.88
2023-03-27T13:17:59.956Z,2.28
2023-03-27T13:19:16.899Z,2.63
2023-03-27T13:20:51.881Z,4.05
2023-03-27T13:22:06.940Z,4.53
2023-03-27T13:23:14.726Z,1.77
2023-03-27T13:24:16.101Z,2.38
2023-03-27T13:26:01.531Z,2.40
2023-03-27T13:27:17.675Z,2.10
2023-03-27T13:28:34.617Z,2.95
2023-03-27T13:29:36.335Z,2.58
2023-03-27T13:30:56.410Z,5.05
2023-03-27T13:32:25.872Z,2.70
2023-03-27T13:33:30.119Z,6.82
2023-03-27T13:34:39.209Z,3.75
2023-03-27T13:37:07.867Z,5.35
2023-03-27T13:38:11.566Z,3.90
2023-03-27T13:39:24.720Z,5.07
2023-03-27T13:40:40.565Z,4.05
2023-03-27T13:41:44.791Z,3.78
2023-03-27T13:42:51.828Z,4.22
2023-03-27T13:43:54.169Z,2.63
2023-03-27T13:45:20.417Z,3.10
2023-03-27T13:46:29.209Z,5.40
2023-03-27T13:47:33.747Z,4.53
2023-03-27T13:48:45.262Z,12.95
2023-03-27T13:50:08.834Z,4.63
2023-03-27T13:51:41.030Z,5.38
2023-03-27T13:53:01.131Z,3.78
2023-03-27T13:54:27.277Z,2.85
2023-03-27T13:55:51.923Z,4.50
2023-03-27T13:56:59.291Z,3.40
2023-03-27T13:58:28.815Z,2.63
2023-03-27T14:00:08.416Z,3.80
2023-03-27T14:01:34.296Z,1.45
2023-03-27T14:03:13.617Z,2.70
2023-03-27T14:04:33.451Z,2.85
2023-03-27T14:05:57.152Z,2.75
2023-03-27T14:07:31.005Z,2.70
2023-03-27T14:10:12.104Z,2.55
2023-03-27T14:11:24.802Z,2.35
2023-03-27T14:12:52.802Z,3.20
2023-03-27T14:14:23.187Z,2.67
2023-03-27T14:15:51.703Z,1.85
2023-03-27T14:16:59.550Z,14.30
2023-03-27T14:18:22.551Z,15.35
2023-03-27T14:20:10.924Z,6.32
2023-03-27T14:21:24.716Z,5.80
2023-03-27T14:22:43.196Z,2.88
2023-03-27T14:23:55.916Z,4.07
2023-03-27T14:25:00.377Z,2.60
2023-03-27T14:26:05.908Z,2.83
2023-03-27T14:27:13.842Z,1.73
2023-03-27T14:28:55.004Z,2.95
2023-03-27T14:30:14.266Z,2.45
2023-03-27T14:31:19.245Z,3.95
2023-03-27T14:32:21.739Z,3.05
2023-03-27T14:33:23.341Z,1.92
2023-03-27T14:34:25.554Z,2.70
2023-03-27T14:35:35.932Z,3.95
2023-03-27T14:36:42.244Z,2.80
2023-03-27T14:37:44.900Z,2.75
2023-03-27T14:38:47.310Z,2.67
2023-03-27T14:39:59.603Z,3.08
2023-03-27T14:41:04.306Z,3.05
2023-03-27T14:42:16.580Z,4.75
2023-03-27T14:43:21.106Z,4.13
2023-03-27T14:44:27.776Z,3.55
2023-03-27T14:45:33.238Z,2.83
2023-03-27T14:46:36.207Z,2.95
2023-03-27T14:48:42.471Z,4.25
2023-03-27T14:49:47.496Z,3.72
2023-03-27T14:50:53.434Z,4.70
2023-03-27T14:52:01.579Z,3.40
2023-03-27T14:53:09.252Z,4.43
2023-03-27T14:54:26.797Z,4.53
2023-03-27T14:55:34.501Z,8.13
2023-03-27T14:56:47.598Z,4.28
2023-03-27T14:57:51.720Z,3.05
2023-03-27T14:58:58.075Z,9.23
2023-03-27T15:00:00.439Z,12.20
2023-03-27T15:01:02.227Z,3.55
2023-03-27T15:02:10.298Z,3.60
2023-03-27T15:03:19.014Z,4.40
2023-03-27T15:04:20.934Z,3.80
2023-03-27T15:05:23.043Z,7.95
2023-03-27T15:06:27.107Z,3.88
2023-03-27T15:07:33.975Z,3.10
2023-03-27T15:08:37.248Z,4.35
2023-03-27T15:09:38.781Z,3.83
2023-03-27T15:10:40.318Z,4.22
2023-03-27T15:11:44.358Z,5.05
2023-03-27T15:12:49.192Z,3.22
2023-03-27T15:13:51.092Z,3.42
2023-03-27T15:14:53.797Z,5.05
2023-03-27T15:15:59.107Z,4.70
2023-03-27T15:17:14.812Z,3.60
2023-03-27T15:18:33.735Z,4.57
2023-03-27T15:19:45.187Z,3.25
2023-03-27T15:20:47.452Z,3.70
2023-03-27T15:21:57.007Z,3.80
2023-03-27T15:23:12.050Z,3.78
2023-03-27T15:24:52.960Z,4.97
2023-03-27T15:26:18.998Z,3.35
2023-03-27T15:27:28.427Z,3.72
2023-03-27T15:28:40.673Z,2.72
2023-03-27T15:29:47.668Z,4.50
2023-03-27T15:30:53.944Z,4.72
2023-03-27T15:31:57.003Z,3.63